sensor_id;sensor_type;location;lat;lon;timestamp;P1;durP1;ratioP1;P2;durP2;ratioP2
42244;SDS011;27912;51.828;5.688;2023-03-11T00:00:19;19.85;;;4.80;;
42244;SDS011;27912;51.828;5.688;2023-03-11T00:02:47;17.83;;;3.25;;
42244;SDS011;27912;51.828;5.688;2023-03-11T00:05:18;20.98;;;4.07;;
42244;SDS011;27912;51.828;5.688;2023-03-11T00:07:55;23.63;;;3.38;;
42244;SDS011;27912;51.828;5.688;2023-03-11T00:10:25;22.70;;;3.30;;
42244;SDS011;27912;51.828;5.688;2023-03-11T00:12:52;23.40;;;4.18;;
42244;SDS011;27912;51.828;5.688;2023-03-11T00:15:19;16.67;;;3.28;;
42244;SDS011;27912;51.828;5.688;2023-03-11T00:17:46;20.80;;;3.97;;
42244;SDS011;27912;51.828;5.688;2023-03-11T00:20:17;23.50;;;4.40;;
42244;SDS011;27912;51.828;5.688;2023-03-11T00:22:53;22.30;;;3.80;;
42244;SDS011;27912;51.828;5.688;2023-03-11T00:25:19;13.80;;;3.53;;
42244;SDS011;27912;51.828;5.688;2023-03-11T00:27:45;18.20;;;3.45;;
42244;SDS011;27912;51.828;5.688;2023-03-11T00:30:11;12.55;;;3.72;;
42244;SDS011;27912;51.828;5.688;2023-03-11T00:32:39;16.00;;;2.53;;
42244;SDS011;27912;51.828;5.688;2023-03-11T00:35:05;15.38;;;2.33;;
42244;SDS011;27912;51.828;5.688;2023-03-11T00:37:31;10.18;;;2.25;;
42244;SDS011;27912;51.828;5.688;2023-03-11T00:39:57;12.07;;;2.35;;
42244;SDS011;27912;51.828;5.688;2023-03-11T00:42:23;13.27;;;2.22;;
42244;SDS011;27912;51.828;5.688;2023-03-11T00:44:49;12.32;;;1.88;;
42244;SDS011;27912;51.828;5.688;2023-03-11T00:47:14;18.45;;;2.45;;
42244;SDS011;27912;51.828;5.688;2023-03-11T00:49:40;12.70;;;1.60;;
42244;SDS011;27912;51.828;5.688;2023-03-11T00:52:07;15.68;;;2.25;;
42244;SDS011;27912;51.828;5.688;2023-03-11T00:54:32;13.55;;;1.83;;
42244;SDS011;27912;51.828;5.688;2023-03-11T00:56:58;11.88;;;2.00;;
42244;SDS011;27912;51.828;5.688;2023-03-11T00:59:23;11.63;;;1.95;;
42244;SDS011;27912;51.828;5.688;2023-03-11T01:01:49;6.88;;;1.70;;
42244;SDS011;27912;51.828;5.688;2023-03-11T01:04:15;16.23;;;2.10;;
42244;SDS011;27912;51.828;5.688;2023-03-11T01:06:40;14.65;;;1.85;;
42244;SDS011;27912;51.828;5.688;2023-03-11T01:09:06;10.77;;;1.48;;
42244;SDS011;27912;51.828;5.688;2023-03-11T01:11:31;11.70;;;1.60;;
42244;SDS011;27912;51.828;5.688;2023-03-11T01:13:57;13.07;;;1.75;;
42244;SDS011;27912;51.828;5.688;2023-03-11T01:16:23;21.00;;;2.50;;
42244;SDS011;27912;51.828;5.688;2023-03-11T01:18:48;14.02;;;1.90;;
42244;SDS011;27912;51.828;5.688;2023-03-11T01:21:14;9.25;;;1.42;;
42244;SDS011;27912;51.828;5.688;2023-03-11T01:23:40;11.60;;;2.42;;
42244;SDS011;27912;51.828;5.688;2023-03-11T01:26:06;16.90;;;2.03;;
42244;SDS011;27912;51.828;5.688;2023-03-11T01:28:32;11.95;;;1.55;;
42244;SDS011;27912;51.828;5.688;2023-03-11T01:30:58;13.23;;;1.92;;
42244;SDS011;27912;51.828;5.688;2023-03-11T01:33:24;18.83;;;2.00;;
42244;SDS011;27912;51.828;5.688;2023-03-11T01:35:49;10.90;;;1.65;;
42244;SDS011;27912;51.828;5.688;2023-03-11T01:38:15;9.88;;;1.50;;
42244;SDS011;27912;51.828;5.688;2023-03-11T01:40:48;14.15;;;1.90;;
42244;SDS011;27912;51.828;5.688;2023-03-11T01:46:14;16.95;;;1.77;;
42244;SDS011;27912;51.828;5.688;2023-03-11T01:48:49;18.23;;;1.98;;
42244;SDS011;27912;51.828;5.688;2023-03-11T01:51:18;11.80;;;1.80;;
42244;SDS011;27912;51.828;5.688;2023-03-11T01:53:49;21.55;;;2.55;;
42244;SDS011;27912;51.828;5.688;2023-03-11T01:56:16;8.98;;;1.70;;
42244;SDS011;27912;51.828;5.688;2023-03-11T01:58:43;8.68;;;1.70;;
42244;SDS011;27912;51.828;5.688;2023-03-11T02:01:13;12.38;;;2.55;;
42244;SDS011;27912;51.828;5.688;2023-03-11T02:03:40;14.43;;;2.20;;
42244;SDS011;27912;51.828;5.688;2023-03-11T02:06:24;13.20;;;2.10;;
42244;SDS011;27912;51.828;5.688;2023-03-11T02:08:50;7.57;;;1.88;;
42244;SDS011;27912;51.828;5.688;2023-03-11T02:11:23;7.93;;;1.67;;
42244;SDS011;27912;51.828;5.688;2023-03-11T02:13:53;7.60;;;1.40;;
42244;SDS011;27912;51.828;5.688;2023-03-11T02:16:22;12.38;;;1.92;;
42244;SDS011;27912;51.828;5.688;2023-03-11T02:18:48;8.35;;;1.58;;
42244;SDS011;27912;51.828;5.688;2023-03-11T02:21:22;9.25;;;1.92;;
42244;SDS011;27912;51.828;5.688;2023-03-11T02:23:52;7.07;;;1.05;;
42244;SDS011;27912;51.828;5.688;2023-03-11T02:26:26;6.97;;;1.55;;
42244;SDS011;27912;51.828;5.688;2023-03-11T02:29:01;9.18;;;1.60;;
42244;SDS011;27912;51.828;5.688;2023-03-11T02:31:30;13.77;;;1.90;;
42244;SDS011;27912;51.828;5.688;2023-03-11T02:33:56;11.35;;;1.45;;
42244;SDS011;27912;51.828;5.688;2023-03-11T02:36:32;14.63;;;1.98;;
42244;SDS011;27912;51.828;5.688;2023-03-11T02:39:00;8.63;;;1.35;;
42244;SDS011;27912;51.828;5.688;2023-03-11T02:41:27;12.35;;;2.00;;
42244;SDS011;27912;51.828;5.688;2023-03-11T02:43:53;7.45;;;1.33;;
42244;SDS011;27912;51.828;5.688;2023-03-11T02:46:20;12.23;;;1.52;;
42244;SDS011;27912;51.828;5.688;2023-03-11T02:48:45;17.88;;;1.40;;
42244;SDS011;27912;51.828;5.688;2023-03-11T02:51:12;9.38;;;1.08;;
42244;SDS011;27912;51.828;5.688;2023-03-11T02:53:39;9.07;;;1.27;;
42244;SDS011;27912;51.828;5.688;2023-03-11T02:56:10;7.45;;;1.00;;
42244;SDS011;27912;51.828;5.688;2023-03-11T02:58:35;7.47;;;1.20;;
42244;SDS011;27912;51.828;5.688;2023-03-11T03:01:01;11.38;;;1.25;;
42244;SDS011;27912;51.828;5.688;2023-03-11T03:03:27;7.30;;;1.33;;
42244;SDS011;27912;51.828;5.688;2023-03-11T03:05:52;10.00;;;1.35;;
42244;SDS011;27912;51.828;5.688;2023-03-11T03:08:18;10.90;;;1.50;;
42244;SDS011;27912;51.828;5.688;2023-03-11T03:10:43;9.65;;;1.70;;
42244;SDS011;27912;51.828;5.688;2023-03-11T03:13:09;13.23;;;1.85;;
42244;SDS011;27912;51.828;5.688;2023-03-11T03:15:35;17.42;;;1.85;;
42244;SDS011;27912;51.828;5.688;2023-03-11T03:18:00;11.63;;;1.70;;
42244;SDS011;27912;51.828;5.688;2023-03-11T03:20:26;9.25;;;2.05;;
42244;SDS011;27912;51.828;5.688;2023-03-11T03:22:51;12.93;;;2.20;;
42244;SDS011;27912;51.828;5.688;2023-03-11T03:25:18;19.58;;;2.55;;
42244;SDS011;27912;51.828;5.688;2023-03-11T03:27:43;8.20;;;2.20;;
42244;SDS011;27912;51.828;5.688;2023-03-11T03:30:09;10.27;;;1.83;;
42244;SDS011;27912;51.828;5.688;2023-03-11T03:32:36;15.68;;;2.33;;
42244;SDS011;27912;51.828;5.688;2023-03-11T03:35:02;9.40;;;2.08;;
42244;SDS011;27912;51.828;5.688;2023-03-11T03:37:31;14.93;;;2.63;;
42244;SDS011;27912;51.828;5.688;2023-03-11T03:39:57;12.25;;;2.40;;
42244;SDS011;27912;51.828;5.688;2023-03-11T03:42:23;14.18;;;2.53;;
42244;SDS011;27912;51.828;5.688;2023-03-11T03:44:49;9.77;;;2.15;;
42244;SDS011;27912;51.828;5.688;2023-03-11T03:47:16;13.07;;;2.50;;
42244;SDS011;27912;51.828;5.688;2023-03-11T03:49:42;18.27;;;2.53;;
42244;SDS011;27912;51.828;5.688;2023-03-11T03:52:08;18.73;;;2.78;;
42244;SDS011;27912;51.828;5.688;2023-03-11T03:54:34;15.50;;;2.88;;
42244;SDS011;27912;51.828;5.688;2023-03-11T03:57:00;13.35;;;2.63;;
42244;SDS011;27912;51.828;5.688;2023-03-11T03:59:26;9.18;;;2.30;;
42244;SDS011;27912;51.828;5.688;2023-03-11T04:01:52;10.88;;;1.70;;
42244;SDS011;27912;51.828;5.688;2023-03-11T04:04:17;11.85;;;2.47;;
42244;SDS011;27912;51.828;5.688;2023-03-11T04:06:43;16.38;;;2.65;;
42244;SDS011;27912;51.828;5.688;2023-03-11T04:09:09;10.30;;;2.08;;
42244;SDS011;27912;51.828;5.688;2023-03-11T04:11:35;10.50;;;2.97;;
42244;SDS011;27912;51.828;5.688;2023-03-11T04:14:01;8.95;;;2.25;;
42244;SDS011;27912;51.828;5.688;2023-03-11T04:16:27;10.85;;;2.08;;
42244;SDS011;27912;51.828;5.688;2023-03-11T04:18:53;16.13;;;2.42;;
42244;SDS011;27912;51.828;5.688;2023-03-11T04:21:19;15.07;;;3.08;;
42244;SDS011;27912;51.828;5.688;2023-03-11T04:23:44;11.43;;;2.13;;
42244;SDS011;27912;51.828;5.688;2023-03-11T04:26:10;13.10;;;2.20;;
42244;SDS011;27912;51.828;5.688;2023-03-11T04:28:36;13.75;;;2.33;;
42244;SDS011;27912;51.828;5.688;2023-03-11T04:31:01;12.25;;;2.08;;
42244;SDS011;27912;51.828;5.688;2023-03-11T04:33:27;18.65;;;2.72;;
42244;SDS011;27912;51.828;5.688;2023-03-11T04:35:52;13.00;;;2.40;;
42244;SDS011;27912;51.828;5.688;2023-03-11T04:38:18;9.07;;;1.73;;
42244;SDS011;27912;51.828;5.688;2023-03-11T04:40:43;8.60;;;2.20;;
42244;SDS011;27912;51.828;5.688;2023-03-11T04:43:09;15.98;;;2.30;;
42244;SDS011;27912;51.828;5.688;2023-03-11T04:45:37;14.70;;;2.58;;
42244;SDS011;27912;51.828;5.688;2023-03-11T04:48:03;11.55;;;2.40;;
42244;SDS011;27912;51.828;5.688;2023-03-11T04:50:28;19.10;;;1.85;;
42244;SDS011;27912;51.828;5.688;2023-03-11T04:52:54;9.73;;;1.90;;
42244;SDS011;27912;51.828;5.688;2023-03-11T04:55:20;13.48;;;1.75;;
42244;SDS011;27912;51.828;5.688;2023-03-11T04:57:46;14.23;;;2.80;;
42244;SDS011;27912;51.828;5.688;2023-03-11T05:00:12;14.88;;;2.00;;
42244;SDS011;27912;51.828;5.688;2023-03-11T05:02:39;10.25;;;1.67;;
42244;SDS011;27912;51.828;5.688;2023-03-11T05:05:06;13.68;;;1.67;;
42244;SDS011;27912;51.828;5.688;2023-03-11T05:07:33;8.75;;;1.50;;
42244;SDS011;27912;51.828;5.688;2023-03-11T05:10:00;12.85;;;2.47;;
42244;SDS011;27912;51.828;5.688;2023-03-11T05:12:25;14.82;;;2.15;;
42244;SDS011;27912;51.828;5.688;2023-03-11T05:14:51;9.95;;;1.95;;
42244;SDS011;27912;51.828;5.688;2023-03-11T05:17:17;7.57;;;1.90;;
42244;SDS011;27912;51.828;5.688;2023-03-11T05:19:43;8.82;;;1.85;;
42244;SDS011;27912;51.828;5.688;2023-03-11T05:22:09;11.35;;;2.22;;
42244;SDS011;27912;51.828;5.688;2023-03-11T05:24:35;13.23;;;2.17;;
42244;SDS011;27912;51.828;5.688;2023-03-11T05:27:01;10.30;;;2.30;;
42244;SDS011;27912;51.828;5.688;2023-03-11T05:29:28;14.43;;;2.80;;
42244;SDS011;27912;51.828;5.688;2023-03-11T05:31:54;14.23;;;1.98;;
42244;SDS011;27912;51.828;5.688;2023-03-11T05:34:19;13.63;;;2.45;;
42244;SDS011;27912;51.828;5.688;2023-03-11T05:36:45;11.32;;;2.08;;
42244;SDS011;27912;51.828;5.688;2023-03-11T05:39:11;16.05;;;2.55;;
42244;SDS011;27912;51.828;5.688;2023-03-11T05:41:37;9.63;;;2.22;;
42244;SDS011;27912;51.828;5.688;2023-03-11T05:44:04;7.82;;;2.08;;
42244;SDS011;27912;51.828;5.688;2023-03-11T05:46:29;13.75;;;2.53;;
42244;SDS011;27912;51.828;5.688;2023-03-11T05:48:56;10.63;;;2.53;;
42244;SDS011;27912;51.828;5.688;2023-03-11T05:51:23;8.85;;;2.50;;
42244;SDS011;27912;51.828;5.688;2023-03-11T05:53:49;11.32;;;2.75;;
42244;SDS011;27912;51.828;5.688;2023-03-11T05:56:15;14.52;;;2.90;;
42244;SDS011;27912;51.828;5.688;2023-03-11T05:58:42;15.95;;;3.10;;
42244;SDS011;27912;51.828;5.688;2023-03-11T06:01:08;11.48;;;2.30;;
42244;SDS011;27912;51.828;5.688;2023-03-11T06:03:35;9.85;;;2.47;;
42244;SDS011;27912;51.828;5.688;2023-03-11T06:06:01;14.75;;;3.10;;
42244;SDS011;27912;51.828;5.688;2023-03-11T06:08:29;14.77;;;3.22;;
42244;SDS011;27912;51.828;5.688;2023-03-11T06:10:59;15.85;;;3.53;;
42244;SDS011;27912;51.828;5.688;2023-03-11T06:13:28;10.10;;;3.20;;
42244;SDS011;27912;51.828;5.688;2023-03-11T06:15:54;15.95;;;3.20;;
42244;SDS011;27912;51.828;5.688;2023-03-11T06:18:20;12.68;;;3.20;;
42244;SDS011;27912;51.828;5.688;2023-03-11T06:20:45;10.02;;;3.22;;
42244;SDS011;27912;51.828;5.688;2023-03-11T06:23:11;12.38;;;3.40;;
42244;SDS011;27912;51.828;5.688;2023-03-11T06:25:36;19.60;;;3.00;;
42244;SDS011;27912;51.828;5.688;2023-03-11T06:28:02;11.45;;;2.67;;
42244;SDS011;27912;51.828;5.688;2023-03-11T06:30:28;15.15;;;4.90;;
42244;SDS011;27912;51.828;5.688;2023-03-11T06:32:53;14.10;;;3.00;;
42244;SDS011;27912;51.828;5.688;2023-03-11T06:35:19;18.13;;;3.65;;
42244;SDS011;27912;51.828;5.688;2023-03-11T06:37:45;16.65;;;4.28;;
42244;SDS011;27912;51.828;5.688;2023-03-11T06:40:10;17.17;;;3.53;;
42244;SDS011;27912;51.828;5.688;2023-03-11T06:42:37;13.10;;;3.42;;
42244;SDS011;27912;51.828;5.688;2023-03-11T06:45:02;16.60;;;3.45;;
42244;SDS011;27912;51.828;5.688;2023-03-11T06:47:28;12.82;;;3.83;;
42244;SDS011;27912;51.828;5.688;2023-03-11T06:49:54;12.43;;;3.53;;
42244;SDS011;27912;51.828;5.688;2023-03-11T06:52:19;14.70;;;3.05;;
42244;SDS011;27912;51.828;5.688;2023-03-11T06:54:45;13.18;;;3.97;;
42244;SDS011;27912;51.828;5.688;2023-03-11T06:57:11;17.00;;;3.30;;
42244;SDS011;27912;51.828;5.688;2023-03-11T06:59:36;8.68;;;3.35;;
42244;SDS011;27912;51.828;5.688;2023-03-11T07:02:02;16.02;;;3.63;;
42244;SDS011;27912;51.828;5.688;2023-03-11T07:04:29;16.60;;;4.40;;
42244;SDS011;27912;51.828;5.688;2023-03-11T07:06:56;17.50;;;3.72;;
42244;SDS011;27912;51.828;5.688;2023-03-11T07:09:22;12.65;;;4.45;;
42244;SDS011;27912;51.828;5.688;2023-03-11T07:11:49;12.68;;;3.97;;
42244;SDS011;27912;51.828;5.688;2023-03-11T07:14:16;12.75;;;4.28;;
42244;SDS011;27912;51.828;5.688;2023-03-11T07:16:42;16.08;;;5.15;;
42244;SDS011;27912;51.828;5.688;2023-03-11T07:19:08;11.52;;;4.45;;
42244;SDS011;27912;51.828;5.688;2023-03-11T07:21:33;14.20;;;4.00;;
42244;SDS011;27912;51.828;5.688;2023-03-11T07:24:00;13.60;;;4.55;;
42244;SDS011;27912;51.828;5.688;2023-03-11T07:26:27;21.80;;;4.97;;
42244;SDS011;27912;51.828;5.688;2023-03-11T07:28:54;13.13;;;4.72;;
42244;SDS011;27912;51.828;5.688;2023-03-11T07:31:24;21.65;;;5.35;;
42244;SDS011;27912;51.828;5.688;2023-03-11T07:33:52;17.55;;;5.45;;
42244;SDS011;27912;51.828;5.688;2023-03-11T07:36:18;13.60;;;4.55;;
42244;SDS011;27912;51.828;5.688;2023-03-11T07:38:45;14.27;;;5.93;;
42244;SDS011;27912;51.828;5.688;2023-03-11T07:41:12;15.18;;;5.57;;
42244;SDS011;27912;51.828;5.688;2023-03-11T07:43:39;13.77;;;5.82;;
42244;SDS011;27912;51.828;5.688;2023-03-11T07:46:07;18.40;;;5.38;;
42244;SDS011;27912;51.828;5.688;2023-03-11T07:48:37;19.35;;;5.90;;
42244;SDS011;27912;51.828;5.688;2023-03-11T07:51:09;14.32;;;5.32;;
42244;SDS011;27912;51.828;5.688;2023-03-11T07:53:39;13.13;;;5.63;;
42244;SDS011;27912;51.828;5.688;2023-03-11T07:56:06;12.77;;;5.47;;
42244;SDS011;27912;51.828;5.688;2023-03-11T07:58:32;14.30;;;4.78;;
42244;SDS011;27912;51.828;5.688;2023-03-11T08:01:17;14.23;;;4.68;;
42244;SDS011;27912;51.828;5.688;2023-03-11T08:03:45;11.07;;;3.83;;
42244;SDS011;27912;51.828;5.688;2023-03-11T08:06:17;9.40;;;4.22;;
42244;SDS011;27912;51.828;5.688;2023-03-11T08:08:45;11.63;;;3.75;;
42244;SDS011;27912;51.828;5.688;2023-03-11T08:11:11;13.45;;;4.10;;
42244;SDS011;27912;51.828;5.688;2023-03-11T08:13:38;10.45;;;3.78;;
42244;SDS011;27912;51.828;5.688;2023-03-11T08:16:05;11.07;;;3.67;;
42244;SDS011;27912;51.828;5.688;2023-03-11T08:18:33;15.35;;;3.75;;
42244;SDS011;27912;51.828;5.688;2023-03-11T08:20:59;9.52;;;3.17;;
42244;SDS011;27912;51.828;5.688;2023-03-11T08:23:29;11.90;;;2.63;;
42244;SDS011;27912;51.828;5.688;2023-03-11T08:25:54;10.43;;;2.60;;
42244;SDS011;27912;51.828;5.688;2023-03-11T08:28:20;10.18;;;2.45;;
42244;SDS011;27912;51.828;5.688;2023-03-11T08:30:46;12.85;;;2.55;;
42244;SDS011;27912;51.828;5.688;2023-03-11T08:33:11;6.68;;;2.53;;
42244;SDS011;27912;51.828;5.688;2023-03-11T08:35:37;12.13;;;2.67;;
42244;SDS011;27912;51.828;5.688;2023-03-11T08:38:02;10.38;;;2.55;;
42244;SDS011;27912;51.828;5.688;2023-03-11T08:40:28;9.38;;;2.72;;
42244;SDS011;27912;51.828;5.688;2023-03-11T08:42:54;5.38;;;1.88;;
42244;SDS011;27912;51.828;5.688;2023-03-11T08:45:20;9.90;;;1.83;;
42244;SDS011;27912;51.828;5.688;2023-03-11T08:47:46;10.38;;;2.30;;
42244;SDS011;27912;51.828;5.688;2023-03-11T08:50:13;5.78;;;1.50;;
42244;SDS011;27912;51.828;5.688;2023-03-11T08:52:40;8.18;;;1.60;;
42244;SDS011;27912;51.828;5.688;2023-03-11T08:55:06;7.45;;;2.05;;
42244;SDS011;27912;51.828;5.688;2023-03-11T08:57:35;8.40;;;2.25;;
42244;SDS011;27912;51.828;5.688;2023-03-11T09:00:02;10.88;;;2.13;;
42244;SDS011;27912;51.828;5.688;2023-03-11T09:02:28;6.82;;;1.60;;
42244;SDS011;27912;51.828;5.688;2023-03-11T09:04:54;13.43;;;1.95;;
42244;SDS011;27912;51.828;5.688;2023-03-11T09:07:19;9.20;;;1.52;;
42244;SDS011;27912;51.828;5.688;2023-03-11T09:09:45;6.55;;;1.50;;
42244;SDS011;27912;51.828;5.688;2023-03-11T09:12:10;9.18;;;2.00;;
42244;SDS011;27912;51.828;5.688;2023-03-11T09:14:38;6.22;;;1.70;;
42244;SDS011;27912;51.828;5.688;2023-03-11T09:17:04;6.82;;;1.50;;
42244;SDS011;27912;51.828;5.688;2023-03-11T09:19:30;8.63;;;1.45;;
42244;SDS011;27912;51.828;5.688;2023-03-11T09:21:58;11.05;;;1.73;;
42244;SDS011;27912;51.828;5.688;2023-03-11T09:24:24;5.25;;;1.20;;
42244;SDS011;27912;51.828;5.688;2023-03-11T09:26:50;9.88;;;1.42;;
42244;SDS011;27912;51.828;5.688;2023-03-11T09:29:15;4.47;;;1.35;;
42244;SDS011;27912;51.828;5.688;2023-03-11T09:31:41;15.65;;;1.42;;
42244;SDS011;27912;51.828;5.688;2023-03-11T09:34:07;9.63;;;1.30;;
42244;SDS011;27912;51.828;5.688;2023-03-11T09:36:32;7.53;;;1.00;;
42244;SDS011;27912;51.828;5.688;2023-03-11T09:38:59;8.23;;;0.93;;
42244;SDS011;27912;51.828;5.688;2023-03-11T09:41:27;6.30;;;0.80;;
42244;SDS011;27912;51.828;5.688;2023-03-11T09:44:17;6.63;;;0.85;;
42244;SDS011;27912;51.828;5.688;2023-03-11T09:55:26;2.97;;;0.52;;
42244;SDS011;27912;51.828;5.688;2023-03-11T09:57:57;5.15;;;0.73;;
42244;SDS011;27912;51.828;5.688;2023-03-11T10:00:26;7.38;;;0.60;;
42244;SDS011;27912;51.828;5.688;2023-03-11T10:02:52;2.42;;;0.40;;
42244;SDS011;27912;51.828;5.688;2023-03-11T10:07:53;15.25;;;0.63;;
42244;SDS011;27912;51.828;5.688;2023-03-11T10:10:29;7.25;;;0.30;;
42244;SDS011;27912;51.828;5.688;2023-03-11T10:21:33;8.15;;;0.70;;
42244;SDS011;27912;51.828;5.688;2023-03-11T10:26:53;8.50;;;0.40;;
42244;SDS011;27912;51.828;5.688;2023-03-11T10:29:28;7.13;;;0.30;;
42244;SDS011;27912;51.828;5.688;2023-03-11T10:32:00;6.20;;;0.20;;
42244;SDS011;27912;51.828;5.688;2023-03-11T10:37:25;3.10;;;0.25;;
42244;SDS011;27912;51.828;5.688;2023-03-11T10:39:53;3.92;;;0.30;;
42244;SDS011;27912;51.828;5.688;2023-03-11T10:42:22;2.28;;;0.30;;
42244;SDS011;27912;51.828;5.688;2023-03-11T10:44:52;4.97;;;0.43;;
42244;SDS011;27912;51.828;5.688;2023-03-11T10:47:21;4.25;;;0.40;;
42244;SDS011;27912;51.828;5.688;2023-03-11T10:49:49;3.90;;;0.40;;
42244;SDS011;27912;51.828;5.688;2023-03-11T10:52:16;9.57;;;0.50;;
42244;SDS011;27912;51.828;5.688;2023-03-11T10:54:43;6.43;;;0.30;;
42244;SDS011;27912;51.828;5.688;2023-03-11T10:57:18;2.00;;;0.40;;
42244;SDS011;27912;51.828;5.688;2023-03-11T10:59:48;2.83;;;0.40;;
42244;SDS011;27912;51.828;5.688;2023-03-11T11:04:47;3.13;;;0.30;;
42244;SDS011;27912;51.828;5.688;2023-03-11T11:07:31;9.57;;;0.60;;
42244;SDS011;27912;51.828;5.688;2023-03-11T11:12:36;3.45;;;0.40;;
42244;SDS011;27912;51.828;5.688;2023-03-11T11:17:53;4.40;;;0.40;;
42244;SDS011;27912;51.828;5.688;2023-03-11T11:20:22;2.20;;;0.30;;
42244;SDS011;27912;51.828;5.688;2023-03-11T11:22:59;1.85;;;0.30;;
42244;SDS011;27912;51.828;5.688;2023-03-11T11:25:35;4.68;;;0.30;;
42244;SDS011;27912;51.828;5.688;2023-03-11T11:28:23;3.95;;;0.40;;
42244;SDS011;27912;51.828;5.688;2023-03-11T11:30:52;3.63;;;0.40;;
42244;SDS011;27912;51.828;5.688;2023-03-11T11:33:20;10.27;;;0.40;;
42244;SDS011;27912;51.828;5.688;2023-03-11T11:35:53;5.78;;;0.30;;
42244;SDS011;27912;51.828;5.688;2023-03-11T11:38:21;4.40;;;0.30;;
42244;SDS011;27912;51.828;5.688;2023-03-11T11:40:49;4.13;;;0.30;;
42244;SDS011;27912;51.828;5.688;2023-03-11T11:43:16;2.92;;;0.30;;
42244;SDS011;27912;51.828;5.688;2023-03-11T11:45:56;2.58;;;0.43;;
42244;SDS011;27912;51.828;5.688;2023-03-11T11:48:35;3.72;;;0.40;;
42244;SDS011;27912;51.828;5.688;2023-03-11T11:51:20;2.33;;;0.30;;
42244;SDS011;27912;51.828;5.688;2023-03-11T11:54:00;5.70;;;0.40;;
42244;SDS011;27912;51.828;5.688;2023-03-11T11:56:35;7.22;;;0.77;;
42244;SDS011;27912;51.828;5.688;2023-03-11T11:59:01;5.57;;;0.32;;
42244;SDS011;27912;51.828;5.688;2023-03-11T12:06:56;4.82;;;1.40;;
42244;SDS011;27912;51.828;5.688;2023-03-11T12:12:26;1.25;;;0.28;;
42244;SDS011;27912;51.828;5.688;2023-03-11T12:17:50;4.05;;;0.40;;
42244;SDS011;27912;51.828;5.688;2023-03-11T12:20:33;2.03;;;0.40;;
42244;SDS011;27912;51.828;5.688;2023-03-11T12:26:30;2.45;;;0.40;;
42244;SDS011;27912;51.828;5.688;2023-03-11T12:28:44;3.25;;;0.30;;
42244;SDS011;27912;51.828;5.688;2023-03-11T12:31:25;4.32;;;0.40;;
42244;SDS011;27912;51.828;5.688;2023-03-11T12:33:57;4.25;;;0.40;;
42244;SDS011;27912;51.828;5.688;2023-03-11T12:39:00;3.60;;;0.45;;
42244;SDS011;27912;51.828;5.688;2023-03-11T12:43:58;3.53;;;0.77;;
42244;SDS011;27912;51.828;5.688;2023-03-11T12:49:32;4.90;;;0.20;;
42244;SDS011;27912;51.828;5.688;2023-03-11T12:54:40;2.80;;;0.30;;
42244;SDS011;27912;51.828;5.688;2023-03-11T12:57:23;1.48;;;0.20;;
42244;SDS011;27912;51.828;5.688;2023-03-11T13:00:02;1.55;;;0.22;;
42244;SDS011;27912;51.828;5.688;2023-03-11T13:02:46;3.70;;;0.23;;
42244;SDS011;27912;51.828;5.688;2023-03-11T13:08:25;4.80;;;0.30;;
42244;SDS011;27912;51.828;5.688;2023-03-11T13:10:56;6.25;;;0.38;;
42244;SDS011;27912;51.828;5.688;2023-03-11T13:13:29;6.45;;;0.52;;
42244;SDS011;27912;51.828;5.688;2023-03-11T13:18:43;2.55;;;0.30;;
42244;SDS011;27912;51.828;5.688;2023-03-11T13:23:51;2.20;;;0.28;;
42244;SDS011;27912;51.828;5.688;2023-03-11T13:26:39;1.35;;;0.22;;
42244;SDS011;27912;51.828;5.688;2023-03-11T13:29:18;1.27;;;0.30;;
42244;SDS011;27912;51.828;5.688;2023-03-11T13:40:59;0.80;;;0.20;;
42244;SDS011;27912;51.828;5.688;2023-03-11T13:43:27;5.88;;;0.32;;
42244;SDS011;27912;51.828;5.688;2023-03-11T13:45:54;2.25;;;0.30;;
42244;SDS011;27912;51.828;5.688;2023-03-11T13:48:29;1.08;;;0.30;;
42244;SDS011;27912;51.828;5.688;2023-03-11T13:50:59;3.65;;;0.30;;
42244;SDS011;27912;51.828;5.688;2023-03-11T13:53:31;2.50;;;0.30;;
42244;SDS011;27912;51.828;5.688;2023-03-11T13:56:05;3.10;;;0.45;;
42244;SDS011;27912;51.828;5.688;2023-03-11T13:58:40;4.22;;;0.30;;
42244;SDS011;27912;51.828;5.688;2023-03-11T14:01:10;2.67;;;0.20;;
42244;SDS011;27912;51.828;5.688;2023-03-11T14:03:41;2.15;;;0.20;;
42244;SDS011;27912;51.828;5.688;2023-03-11T14:06:08;2.40;;;0.20;;
42244;SDS011;27912;51.828;5.688;2023-03-11T14:08:38;2.05;;;0.40;;
42244;SDS011;27912;51.828;5.688;2023-03-11T14:13:41;5.53;;;0.40;;
42244;SDS011;27912;51.828;5.688;2023-03-11T14:19:14;2.78;;;0.38;;
42244;SDS011;27912;51.828;5.688;2023-03-11T14:21:42;1.88;;;0.35;;
42244;SDS011;27912;51.828;5.688;2023-03-11T14:24:17;1.00;;;0.20;;
42244;SDS011;27912;51.828;5.688;2023-03-11T14:26:53;3.10;;;0.47;;
42244;SDS011;27912;51.828;5.688;2023-03-11T14:29:29;2.13;;;0.30;;
42244;SDS011;27912;51.828;5.688;2023-03-11T14:31:56;4.70;;;0.30;;
42244;SDS011;27912;51.828;5.688;2023-03-11T14:34:22;1.00;;;0.20;;
42244;SDS011;27912;51.828;5.688;2023-03-11T14:36:51;2.78;;;0.28;;
42244;SDS011;27912;51.828;5.688;2023-03-11T14:39:22;2.10;;;0.20;;
42244;SDS011;27912;51.828;5.688;2023-03-11T14:42:12;2.25;;;0.15;;
42244;SDS011;27912;51.828;5.688;2023-03-11T14:44:43;1.88;;;0.30;;
42244;SDS011;27912;51.828;5.688;2023-03-11T14:47:16;2.60;;;0.20;;
42244;SDS011;27912;51.828;5.688;2023-03-11T14:49:50;2.83;;;0.20;;
42244;SDS011;27912;51.828;5.688;2023-03-11T14:52:19;3.95;;;0.20;;
42244;SDS011;27912;51.828;5.688;2023-03-11T14:54:48;2.58;;;0.30;;
42244;SDS011;27912;51.828;5.688;2023-03-11T14:57:27;2.75;;;0.20;;
42244;SDS011;27912;51.828;5.688;2023-03-11T14:59:59;3.10;;;0.68;;
42244;SDS011;27912;51.828;5.688;2023-03-11T15:05:20;2.28;;;0.20;;
42244;SDS011;27912;51.828;5.688;2023-03-11T15:07:55;4.10;;;0.47;;
42244;SDS011;27912;51.828;5.688;2023-03-11T15:10:23;3.05;;;0.25;;
42244;SDS011;27912;51.828;5.688;2023-03-11T15:12:48;4.15;;;0.20;;
42244;SDS011;27912;51.828;5.688;2023-03-11T15:15:25;3.35;;;0.30;;
42244;SDS011;27912;51.828;5.688;2023-03-11T15:17:53;2.22;;;0.20;;
42244;SDS011;27912;51.828;5.688;2023-03-11T15:23:02;2.47;;;0.20;;
42244;SDS011;27912;51.828;5.688;2023-03-11T15:25:31;4.78;;;0.30;;
42244;SDS011;27912;51.828;5.688;2023-03-11T15:27:58;1.85;;;0.22;;
42244;SDS011;27912;51.828;5.688;2023-03-11T15:30:37;2.65;;;0.20;;
42244;SDS011;27912;51.828;5.688;2023-03-11T15:33:02;1.67;;;0.20;;
42244;SDS011;27912;51.828;5.688;2023-03-11T15:35:45;3.90;;;0.25;;
42244;SDS011;27912;51.828;5.688;2023-03-11T15:40:50;1.80;;;0.30;;
42244;SDS011;27912;51.828;5.688;2023-03-11T15:43:23;3.45;;;0.30;;
42244;SDS011;27912;51.828;5.688;2023-03-11T15:45:52;4.18;;;0.40;;
42244;SDS011;27912;51.828;5.688;2023-03-11T15:48:19;2.10;;;0.22;;
42244;SDS011;27912;51.828;5.688;2023-03-11T15:50:46;5.90;;;0.30;;
42244;SDS011;27912;51.828;5.688;2023-03-11T15:53:19;1.98;;;0.15;;
42244;SDS011;27912;51.828;5.688;2023-03-11T15:55:46;1.40;;;0.20;;
42244;SDS011;27912;51.828;5.688;2023-03-11T15:58:13;2.25;;;0.30;;
42244;SDS011;27912;51.828;5.688;2023-03-11T16:00:41;1.20;;;0.20;;
42244;SDS011;27912;51.828;5.688;2023-03-11T16:03:10;1.70;;;0.20;;
42244;SDS011;27912;51.828;5.688;2023-03-11T16:05:36;4.68;;;0.20;;
42244;SDS011;27912;51.828;5.688;2023-03-11T16:08:02;1.52;;;0.20;;
42244;SDS011;27912;51.828;5.688;2023-03-11T16:10:27;4.35;;;0.30;;
42244;SDS011;27912;51.828;5.688;2023-03-11T16:12:53;1.60;;;0.20;;
42244;SDS011;27912;51.828;5.688;2023-03-11T16:17:52;2.67;;;0.20;;
42244;SDS011;27912;51.828;5.688;2023-03-11T16:20:22;2.28;;;0.30;;
42244;SDS011;27912;51.828;5.688;2023-03-11T16:22:50;2.58;;;0.30;;